Main page
METAR-TAF:

METAR-TAF

Airports :

Kärdla Airport

Kärdla, Estonia

latitude: 58-59N, longitude: 022-49E, elevation: 5 m

Current weather observation

The report was made 11 hours and 40 minutes ago, at 14:50 UTC
Wind 5 kt from the North/Northwest
Temperature 17°C
Humidity 59%
Pressure 1027 hPa
Visibility 10 km or more
no clouds below 1500 m and no cumulonimbus

METAR: EEKA 211450Z 34005KT CAVOK 17/09 Q1027

Time: 05:30 (02:30 UTC)

Forecast

The report was made 14 hours and 30 minutes ago, at 12:00 UTC
Forecast valid from 21 at 13 UTC to 21 at 19 UTC
Wind 12 kt from the North
Visibility 10 km or more
no clouds below 1500 m and no cumulonimbus

TAF: EEKA 211200Z 2113/2119 35012KT CAVOK

Weather observations and forecasts of more than 4000 airports (METAR and TAF reports).

The available stations are represented by yellow and red dots on the map.

Hover mouse over dot to see the name of the station.

Then click to see weather observations and forecasts.

To change the map : click on the green buttons with a black cross to zoom in, on the green button with a dash to zoom out, or on the green arrows for adjacent maps.


METAR-TAF: